Apia Wharf, Samoa

10:55 PM WST on July 22, 2014 (GMT +1300)
Faleolo International (NSFA) Elev 16 ft | 13.83 °S, 172.01 °W | Change Station

Current weather conditions updated 55 minutes ago

Scattered Clouds
Scattered Clouds
75 °F
Feels Like 75 °F
N
7
Wind Variable Wind from East

Tomorrow is forecast to be Cooler than today. Showers and thunderstorms tomorrow night.

Today
High -- | Low -- °F
--% Chance of Precip.
Yesterday
High -- | Low -- °F
Precip. -- in
6:50 AM 6:16 PM
Waning Crescent, 18% visible
Pressure 29.83 in
Visibility 6.2 miles
Clouds Scattered Clouds 2600 ft
Scattered Clouds 29000 ft
Dew Point 73 °F
Humidity 94%
Rainfall 0.00 in
Snow Depth Not available.
UV 0 out of 12
Pollen Not available.
Air Quality Not available.
Flu Activity Not available.
METAR NSFA 220900Z 10006KT 9999 SCT026 SCT290 24/23 Q1010

More Conditions Fewer Conditions

Pressure 29.83 in
Visibility 6.2 miles
Clouds Scattered Clouds 2600 ft
Scattered Clouds 29000 ft
Dew Point 73 °F
Humidity 94%
Rainfall 0.00 in
Snow Depth Not available.
UV 0 out of 12
Pollen Not available.
Air Quality Not available.
Flu Activity Not available.
METAR NSFA 220900Z 10006KT 9999 SCT026 SCT290 24/23 Q1010

More Conditions Fewer Conditions

10-Day Weather Forecast

LIGHTNING

Thunderstorms are forecast for your area. Cloud conditions might be right for producing strikes in the next few days, though lightning itself cannot be forecasted.

Lightning is a visible electrical discharge produced by a thunderstorm, based on the build up of oppositely charged particles within a cloud and from cloud to ground.

Know how to stay safe in a lightning storm.

Check out these Lightning WunderPhotos!

Almanac

Astronomy

Jul. 22, 2014 Rise Set
Actual Time 6:50 AM WST 6:16 PM WST
Civil Twilight 6:27 AM WST 6:39 PM WST
Nautical Twilight 6:01 AM WST 7:05 PM WST
Astronomical Twilight 5:35 AM WST 7:31 PM WST
Moon 2:34 AM WST 2:22 PM WST
Length of Visible Light 12h 11m
Length of Day
11h 25m
Tomorrow will be 0m 27s longer.
Waning Crescent, 18% of the Moon is Illuminated
Today
Waning Crescent
Jul 26
New
Aug 3
First Quarter
Aug 10
Full
Aug 17
Last Quarter

Yesterday's Extremes

Country Highs Country Lows

Community

WunderPhotos

Upload Photos

1,736,196 photos uploaded!

Nearby

Snow Depth

Not available.

Earthquake Activity

City Distance Mag. Time & Date
No recent earthquake activity has been reported nearby.
Minimum magnitude displayed is 2.5.

Coastal Water Temperatures

Place Temperature
No Stations Reporting

Nearby Weather Stations

There are no personal weather stations in this area.